普天間飛行場

2012/12/23

初米ミサゴ 普天間飛行場 2012/12/19 wed

今回、ふと沖縄行きを思いついたのが、本日のコレ。新しい物好きの血が騒ぐのか、普天間飛行場へオスプレイを捕獲に向かったのでした。

METAR ROTM 182358Z 36011G20KT 9999 BKN030 BKN050 15/08 A3022 RMK SLP220 LCL WND WRNG XWND ADV 60000 T01500078 10156 20133 52017

普天間を望める場所は、テレビでお馴染みの嘉数高台公園しか知らないので、ホテルからレンタカーで直行。うっ、車が一杯と・・ 地元の方がゲートボールで、駐車スペースを探してうろうろ・・・ なにか遠くに低い音が・・・

20121219_rotm_00ep07

道路脇に止めて悩んでいる時に進入してきた、これが、初お目見え。

MV-22B EP07 VMM-265 Doragon10

20121219_rotm_01rotm

高台の展望台に昇ると、テレビでお馴染みの景色。

20121219_rotm_02kakazu

嘉数の展望台。すでに役所の監視要員と思われる人や、地元マニアらしき人も。

20121219_rotm_03p3c

ここからは、嘉手納にアプローチする機体や・・

20121219_rotm_04ana482

那覇空港を離陸する機体が、遠くに見ることが出来ます。

20121219_rotm_05ep07

先ほど着陸したオスプレイが、ランプに戻ってきた。

METAR ROTM 190058Z 35015020KT 9999 BKN030 BKN050 15/09 A3024 RMK SLP228 LCL WND WRNG XWND ACV TO15000091

20121219_rotm_06qd926

20121219_rotm_07qd926

C-130J QD926 VMGR-152 Sumo24

20121219_rotm_08qd763

C-130J QD763 VMGR-152 S30

次々と本土方面に出発していった。

20121219_rotm_09ja21rp

しばらくトラフィックも無く、警察へりがヘリテレで何かを監視しているようだった。

JA21RP AS365N3 沖縄県警察

20121219_rotm_10n657xl

何も訓練が無いのか、Kadena Aero Clubの機体がT/G

N657XL XL-2

20121219_rotm_11f15s

のんびり、眺めているとラジオに・・・

那覇からホットスクランブルでF-15が上がります。

F-15Jx2 204SQ E23

20121219_rotm_12e3

嘉手納へは、朝から時より大型機がやってきては、T/G等をしている。

E-3C ronin33

METAR ROTM 19058Z 02016G20KT 9999 BKN030 BKN050 17/09 A3018 RMK SLP208 LCL WND WRNG XWND ADV T01670091

20121219_rotm_13ep17

お昼を過ぎて、もう一つの飛行隊のCHが飛行訓練。地元の人は、メスプレイと言っていた。チョット失礼だが。

ET17 CH-46E HMM-262 cutter07

20121219_rotm_14rc135u

怪しい偵察機もやってきました。

RC-135 tora82?

20121219_rotm_15ah1w

普天間からは、AH-1W 2機が訓練にお出かけ

AH-1W cutter40

20121219_rotm_16m6713

UC-35D 6713 magic14

20121219_rotm_17ep1008

14時ごろになってようやく動きが

MV-22B EP10/EP08 VMM-265 D11

20121219_rotm_18epx2

20121219_rotm_19epx2

20121219_rotm_20epx2

滑走路中ごろから離陸して、滑走路端ではすでに飛行機モードとなってます。

20121219_rotm_21epx2

しばらくすると、すぐに戻ってきた。ダウンインド上

20121219_rotm_22epx2

ターニングベース

20121219_rotm_23epx2

コンバージョンモードに移行して、ギアダウン、減速しながらファイナルに近ずいてくる。

20121219_rotm_24epx2

20121219_rotm_25ep10

水平推力を無くして、惰力で前進しているように見える。

20121219_rotm_26ep08

20121219_rotm_27epx2

サウンドは、アパッチを双発にしたような音です。

20121219_rotm_28epx2

20121219_rotm_29epx2

20121219_rotm_30epx2

EP08は一度ランプインして、すぐ単機で飛び立っていった。

20121219_rotm_31a128

嘉手納には、あいかわらず大型機の飛来が多い。

手前 ANA128 奥 AIREVAC71474

20121219_rotm_32f15x2

ようやくF-15が帰ってきた。

F-15Cx2 blade01?

20121219_rotm_33ep03

15時前に単機で離陸

MV-22B EP03 VMM-265

METAR ROTM 190558Z 03011G17KT 9999 BKN045 17/08 A3016 RMK SLP199 LCL WND WRNG XWND ADV T01670084 10178 20150 57014

20121219_rotm_34m6713

UC-35D 6713 magic18

20121219_rotm_35epx2

先ほど飛びたったEP03がEP10と帰ってきた。飛行機モードでのフライトは、結構早い。

20121219_rotm_36ep10

20121219_rotm_37ep10

ギアダウンも中々カッチョイイ

20121219_rotm_38ep10

MV-22B EP10 VMM-265 D11

20121219_rotm_39ep03

MV-22B EP03 VMM-265

20121219_rotm_40epx2

20121219_rotm_41f15x3

嘉手納のF-15が5機、バラバラ帰ってきた。この3機はルーズな編隊で、嘉手納でコンバットブレイクして着陸。

F-15Cx3 knife02?

そんなにトラフィックがなかったけれど、一応初見は果たせたので、ボチボチこの場所は、撤収としました。と、そこへ・・・・ 

METAR ROTM 190658Z 03011KT 9999 BKN045 16/09 A3015 RMK SLP197 LCL WND WRNG XWND ADV T01610091

追記

嘉数から那覇に戻る道すがら、アメリカ領事館に半旗が掲げられていた。おやっ何だろうとその場は、通過してしまった。後で調べたところ、知日派で知られたダニエル・ケン・“ダン”・イノウエ上院議員の追悼の意であった。残念ながら写真は記録していないが、故イノウエ議員の冥福をお祈りいたします。

【米国】全米でトップニュース扱い:ホワイトハウスに半旗 故イノウエ議員悼む

| | コメント (0) | トラックバック (0)

2005/10/26

空点描 ふてんま普天間

かねてから日米で交渉が続けられていた、普天間基地の移転について、キャンプシュワブでの半陸上移転で政府間の合意を得たようだ。今は陰もない橋本首相が劇的な発表をしてから9年もたっている。米軍の極東戦略転換により、大規模な基地再編の中でタイミングを逃さないで、少しでも基地返還が進むようお願いしたいものです。普天間飛行場は、市街地の高台にあるが、実際に現地にいくと飛行場としては、すごい傾斜があったり高低差のある誘導路など野戦飛行場のようなものです。また基地内にはたくさんの亀甲墓があり、それを見るにつけ占領されているのだな、と考えてしまいます。

20021006_ROTM20021006_ROTM_UC35D20021006_ROTM_KC135左:写真は2002年10月6日 フライトラインデーのもの 中:この年に導入されたUC-35D 右:SUMOの愛称のあるKC-135R

| | コメント (0) | トラックバック (0)

その他のカテゴリー

BI Boading record aircraft Boading record ship FlightTracking lighthouse NAVAIDS RJNT LOG SKY MASSAGE US NAVY USMC うみ おか そら てつ アクシデント エアロック チーム室屋 三沢飛行場 上五島空港 下地島空港 下総飛行場 与那国空港 中標津空港 中部国際空港 久米島空港 五島福江空港 仙台空港 伊江島空港 但馬空港 佐賀空港 入間飛行場 八尾空港 八戸飛行場 出雲空港 函館空港 利尻空港 北九州空港 十勝飛行場 千歳飛行場 博物館 厚木飛行場 名古屋飛行場 喜界空港 嘉手納飛行場 場外 壱岐空港 大分空港 大湊飛行場 大阪国際空港 大館能代空港 天草空港 奄美空港 奥尻空港 宇部山口空港 宇都宮飛行場 宮古空港 宮崎空港 富山空港 小松島飛行場 小松飛行場 屋久島空港 山形空港 岐阜飛行場 岡山空港 岩国飛行場 帯広空港 広島空港 庄内空港 徳之島空港 徳島飛行場 成田国際空港 新潟空港 新田原飛行場 旭川空港 旭川飛行場 明野飛行場 普天間飛行場 木更津飛行場 札幌飛行場 東京国際空港 松山空港 松島飛行場 松本空港 横田飛行場 沖永良部空港 波照間空港 浜松飛行場 海上保安庁 海上自衛隊 海外 熊本空港 百里飛行場 相馬原飛行場 石垣空港 石見空港 礼文空港 神戸空港 福井空港 福岡空港 福島空港 秋田空港 種子島空港 空撮 立川飛行場 築城飛行場 美保飛行場 能登空港 舞鶴飛行場 航空自衛隊 芦屋飛行場 花巻空港 調布飛行場 警務消防 那覇空港 釧路空港 長崎空港 関西国際空港 陸上自衛隊 隠岐空港 霞ヶ浦飛行場 霞目飛行場 青森空港 静岡空港 静浜飛行場 飛行場跡 飛行船 鹿児島空港 鹿屋飛行場